Time;durP1;ratioP1;P1;durP2;ratioP2;P2;SDS_P1;SDS_P2;PMS_P1;PMS_P2;Temp;Humidity;BMP_temperature;BMP_pressure;BME280_temperature;BME280_humidity;BME280_pressure;Samples;Min_cycle;Max_cycle;Signal;HPM_P1;HPM_P2
2021/03/22 00:01:29;;;;;;;34.65;20.77;;;;;;;;;;4920506;29;20028;-77
2021/03/22 00:03:56;;;;;;;34.42;20.67;;;;;;;;;;4904000;29;20023;-76
2021/03/22 00:06:22;;;;;;;36.58;21.17;;;;;;;;;;4920664;29;20024;-77
2021/03/22 00:08:48;;;;;;;36.00;21.90;;;;;;;;;;4921053;29;20024;-77
2021/03/22 00:11:14;;;;;;;34.33;20.52;;;;;;;;;;4919934;29;20028;-77
2021/03/22 00:13:40;;;;;;;34.95;20.83;;;;;;;;;;4920737;29;20028;-76
2021/03/22 00:16:08;;;;;;;34.80;20.42;;;;;;;;;;4920496;29;20025;-76
2021/03/22 00:18:35;;;;;;;33.30;20.35;;;;;;;;;;4919814;29;20044;-78
2021/03/22 00:21:01;;;;;;;31.70;18.90;;;;;;;;;;4904034;29;20052;-78
2021/03/22 00:23:28;;;;;;;35.60;21.48;;;;;;;;;;4903366;29;20031;-77
2021/03/22 00:25:54;;;;;;;36.97;21.67;;;;;;;;;;4903045;29;20025;-78
2021/03/22 00:28:21;;;;;;;33.95;20.42;;;;;;;;;;4920523;29;20021;-78
2021/03/22 00:30:47;;;;;;;39.30;21.33;;;;;;;;;;4903315;29;20028;-78
2021/03/22 00:33:15;;;;;;;41.80;23.25;;;;;;;;;;4903052;29;20375;-77
2021/03/22 00:35:41;;;;;;;38.15;22.75;;;;;;;;;;4920147;29;20087;-77
2021/03/22 00:38:08;;;;;;;40.40;23.13;;;;;;;;;;4919992;29;20392;-77
2021/03/22 00:40:35;;;;;;;37.75;21.65;;;;;;;;;;4919830;29;20034;-77
2021/03/22 00:43:01;;;;;;;39.08;22.33;;;;;;;;;;4919836;29;20053;-76
2021/03/22 00:45:27;;;;;;;40.47;22.77;;;;;;;;;;4902752;29;20024;-76
2021/03/22 00:47:54;;;;;;;40.92;22.95;;;;;;;;;;4903842;29;20024;-77
2021/03/22 00:50:22;;;;;;;42.65;24.20;;;;;;;;;;4919972;29;20024;-74
2021/03/22 00:52:48;;;;;;;37.83;22.40;;;;;;;;;;4919610;29;20052;-75
2021/03/22 00:55:15;;;;;;;41.97;25.35;;;;;;;;;;4902798;29;20039;-74
2021/03/22 00:57:41;;;;;;;35.42;20.80;;;;;;;;;;4920094;29;20032;-75
2021/03/22 01:00:08;;;;;;;34.10;20.55;;;;;;;;;;4901798;29;20115;-74
2021/03/22 01:02:34;;;;;;;36.90;22.60;;;;;;;;;;4919318;29;20028;-76
2021/03/22 01:05:00;;;;;;;35.60;21.42;;;;;;;;;;4902687;29;20071;-75
2021/03/22 01:07:27;;;;;;;38.03;21.85;;;;;;;;;;4919311;29;20024;-75
2021/03/22 01:09:53;;;;;;;38.30;22.95;;;;;;;;;;4902664;29;20031;-75
2021/03/22 01:12:19;;;;;;;37.70;22.08;;;;;;;;;;4902608;29;20036;-76
2021/03/22 01:14:45;;;;;;;44.80;25.73;;;;;;;;;;4919231;29;20083;-75
2021/03/22 01:17:11;;;;;;;38.03;21.58;;;;;;;;;;4902518;29;20064;-74
2021/03/22 01:19:37;;;;;;;36.90;21.98;;;;;;;;;;4919766;29;20052;-75
2021/03/22 01:22:04;;;;;;;37.95;22.92;;;;;;;;;;4919344;29;20030;-74
2021/03/22 01:24:33;;;;;;;39.50;23.52;;;;;;;;;;4902391;29;20375;-74
2021/03/22 01:27:02;;;;;;;41.30;23.23;;;;;;;;;;4919035;29;20024;-74
2021/03/22 01:29:30;;;;;;;38.67;23.17;;;;;;;;;;4901919;29;20039;-74
2021/03/22 01:31:59;;;;;;;44.33;24.05;;;;;;;;;;4919221;29;20055;-75
2021/03/22 01:34:26;;;;;;;44.45;22.45;;;;;;;;;;4918712;29;20020;-76
2021/03/22 01:36:52;;;;;;;41.08;24.20;;;;;;;;;;4902099;29;20384;-76
2021/03/22 01:39:20;;;;;;;41.28;23.58;;;;;;;;;;4902079;29;20059;-75
2021/03/22 01:41:52;;;;;;;42.20;25.17;;;;;;;;;;4918475;29;20353;-77
2021/03/22 01:44:29;;;;;;;40.50;24.30;;;;;;;;;;4902096;29;20028;-77
2021/03/22 01:46:58;;;;;;;43.08;24.73;;;;;;;;;;4919507;29;20416;-77
2021/03/22 01:49:26;;;;;;;43.83;24.95;;;;;;;;;;4918838;29;20031;-75
2021/03/22 01:51:52;;;;;;;44.28;25.80;;;;;;;;;;4902737;29;20041;-76
2021/03/22 01:54:18;;;;;;;40.67;25.58;;;;;;;;;;4918507;29;20388;-76
2021/03/22 01:56:52;;;;;;;43.45;24.13;;;;;;;;;;4901402;29;20032;-75
2021/03/22 01:59:21;;;;;;;44.67;25.27;;;;;;;;;;4901756;29;20024;-76
2021/03/22 02:01:50;;;;;;;46.55;26.27;;;;;;;;;;4901651;29;20031;-76
2021/03/22 02:04:16;;;;;;;47.70;26.13;;;;;;;;;;4918322;29;20032;-77
2021/03/22 02:06:42;;;;;;;43.17;25.77;;;;;;;;;;4901591;29;20024;-76
2021/03/22 02:09:08;;;;;;;45.20;25.67;;;;;;;;;;4918498;29;20024;-76
2021/03/22 02:11:36;;;;;;;50.90;26.92;;;;;;;;;;4918353;29;20091;-77
2021/03/22 02:14:05;;;;;;;46.75;27.33;;;;;;;;;;4918387;29;20060;-77
2021/03/22 02:16:50;;;;;;;45.35;26.55;;;;;;;;;;4918184;29;20059;-76
2021/03/22 02:19:16;;;;;;;46.33;26.33;;;;;;;;;;4901245;29;20381;-74
2021/03/22 02:22:01;;;;;;;44.95;25.70;;;;;;;;;;4901382;29;20034;-75
2021/03/22 02:24:27;;;;;;;44.38;25.88;;;;;;;;;;4918086;29;20040;-73
2021/03/22 02:27:11;;;;;;;45.22;25.65;;;;;;;;;;4918500;29;20028;-71
2021/03/22 02:29:56;;;;;;;46.75;24.88;;;;;;;;;;4901153;29;20039;-71
2021/03/22 02:32:22;;;;;;;43.28;23.42;;;;;;;;;;4900948;29;20402;-71
2021/03/22 02:34:57;;;;;;;40.33;23.95;;;;;;;;;;4901602;29;20031;-71
2021/03/22 02:37:32;;;;;;;48.75;24.67;;;;;;;;;;4917967;29;20032;-70
2021/03/22 02:40:23;;;;;;;45.50;25.45;;;;;;;;;;4901058;29;20028;-71
2021/03/22 02:42:50;;;;;;;35.35;22.02;;;;;;;;;;4918326;29;20036;-71
2021/03/22 02:45:35;;;;;;;38.42;21.80;;;;;;;;;;4917371;29;20084;-70
2021/03/22 02:48:01;;;;;;;37.08;20.73;;;;;;;;;;4917671;29;20035;-70
2021/03/22 02:50:30;;;;;;;37.47;22.00;;;;;;;;;;4900857;29;20416;-70
2021/03/22 02:53:02;;;;;;;38.92;22.27;;;;;;;;;;4917489;29;20107;-71
2021/03/22 02:55:46;;;;;;;39.33;21.02;;;;;;;;;;4901329;29;20096;-70
2021/03/22 02:58:13;;;;;;;36.92;21.98;;;;;;;;;;4917450;29;20039;-71
2021/03/22 03:00:42;;;;;;;40.47;23.52;;;;;;;;;;4917746;29;20024;-70
2021/03/22 03:03:10;;;;;;;37.10;21.02;;;;;;;;;;4917728;29;20035;-70
2021/03/22 03:05:36;;;;;;;35.60;20.85;;;;;;;;;;4917147;29;20155;-71
2021/03/22 03:08:04;;;;;;;37.33;20.67;;;;;;;;;;4917639;29;20028;-70
2021/03/22 03:10:30;;;;;;;36.83;21.15;;;;;;;;;;4917653;29;20056;-71
2021/03/22 03:12:57;;;;;;;34.03;20.00;;;;;;;;;;4900195;29;20031;-71
2021/03/22 03:15:23;;;;;;;34.10;20.02;;;;;;;;;;4917297;29;20064;-70
2021/03/22 03:17:50;;;;;;;32.35;19.88;;;;;;;;;;4917489;29;20056;-71
2021/03/22 03:20:20;;;;;;;34.83;20.70;;;;;;;;;;4900861;29;20417;-71
2021/03/22 03:22:47;;;;;;;34.30;18.75;;;;;;;;;;4900539;29;20075;-72
2021/03/22 03:25:14;;;;;;;33.83;19.10;;;;;;;;;;4920671;29;20060;-70
2021/03/22 03:27:40;;;;;;;33.80;18.25;;;;;;;;;;4921131;29;20516;-72
2021/03/22 03:30:11;;;;;;;33.33;17.83;;;;;;;;;;4904353;29;20060;-70
2021/03/22 03:32:37;;;;;;;29.42;17.40;;;;;;;;;;4921374;29;20022;-70
2021/03/22 03:35:04;;;;;;;30.15;17.35;;;;;;;;;;4920622;29;20115;-71
2021/03/22 03:37:30;;;;;;;28.85;17.73;;;;;;;;;;4921434;29;20527;-71
2021/03/22 03:39:56;;;;;;;30.77;18.33;;;;;;;;;;4920956;29;20032;-71
2021/03/22 03:42:23;;;;;;;35.00;18.88;;;;;;;;;;4920579;29;20444;-69
2021/03/22 03:44:49;;;;;;;30.00;17.05;;;;;;;;;;4904106;29;20468;-70
2021/03/22 03:47:15;;;;;;;29.25;16.85;;;;;;;;;;4921268;29;20032;-71
2021/03/22 03:49:41;;;;;;;29.73;17.10;;;;;;;;;;4920775;29;20111;-70
2021/03/22 03:52:07;;;;;;;32.67;17.02;;;;;;;;;;4903979;29;20035;-71
2021/03/22 03:54:33;;;;;;;31.55;17.23;;;;;;;;;;4904236;29;20039;-71
2021/03/22 03:57:00;;;;;;;29.80;15.80;;;;;;;;;;4921196;29;20107;-71
2021/03/22 03:59:26;;;;;;;29.58;17.00;;;;;;;;;;4921164;29;20020;-70
2021/03/22 04:01:53;;;;;;;26.17;15.27;;;;;;;;;;4920531;29;20055;-71
2021/03/22 04:04:19;;;;;;;26.05;15.75;;;;;;;;;;4920528;29;20028;-71
2021/03/22 04:06:45;;;;;;;25.88;15.48;;;;;;;;;;4904338;29;20036;-70
2021/03/22 04:09:12;;;;;;;25.23;14.77;;;;;;;;;;4903735;29;20440;-70
2021/03/22 04:11:40;;;;;;;27.00;14.50;;;;;;;;;;4903665;29;20464;-71
2021/03/22 04:14:07;;;;;;;24.27;14.10;;;;;;;;;;4920539;29;20161;-71
2021/03/22 04:16:34;;;;;;;24.15;14.02;;;;;;;;;;4920024;29;20039;-71
2021/03/22 04:19:00;;;;;;;23.80;13.18;;;;;;;;;;4920716;29;20495;-71
2021/03/22 04:21:28;;;;;;;24.27;14.48;;;;;;;;;;4921009;29;20031;-71
2021/03/22 04:23:54;;;;;;;23.73;14.13;;;;;;;;;;4919954;29;20043;-71
2021/03/22 04:26:21;;;;;;;25.80;13.60;;;;;;;;;;4920160;29;20032;-71
2021/03/22 04:28:47;;;;;;;24.40;13.25;;;;;;;;;;4903347;29;20024;-71
2021/03/22 04:31:18;;;;;;;22.98;13.65;;;;;;;;;;4919727;29;20047;-71
2021/03/22 04:33:45;;;;;;;27.73;13.57;;;;;;;;;;4920189;29;20055;-71
2021/03/22 04:36:11;;;;;;;21.13;12.20;;;;;;;;;;4918400;29;20035;-71
2021/03/22 04:38:37;;;;;;;21.85;12.60;;;;;;;;;;4903162;29;20111;-71
2021/03/22 04:41:04;;;;;;;22.77;13.45;;;;;;;;;;4920412;29;20039;-71
2021/03/22 04:43:30;;;;;;;22.90;13.88;;;;;;;;;;4919803;29;20128;-71
2021/03/22 04:45:56;;;;;;;20.63;12.52;;;;;;;;;;4903887;29;20358;-71
2021/03/22 04:48:22;;;;;;;25.30;13.60;;;;;;;;;;4903037;29;20025;-72
2021/03/22 04:50:48;;;;;;;22.02;11.65;;;;;;;;;;4919344;29;20375;-71
2021/03/22 04:53:14;;;;;;;18.42;11.75;;;;;;;;;;4919633;29;20024;-71
2021/03/22 04:55:41;;;;;;;23.77;13.02;;;;;;;;;;4903187;29;20043;-71
2021/03/22 04:58:07;;;;;;;22.80;13.15;;;;;;;;;;4902530;29;20361;-71
2021/03/22 05:00:40;;;;;;;22.45;12.95;;;;;;;;;;4919473;29;20032;-71
2021/03/22 05:03:11;;;;;;;22.30;13.27;;;;;;;;;;4920080;29;20024;-72
2021/03/22 05:05:37;;;;;;;24.40;12.82;;;;;;;;;;4919106;29;20022;-71
2021/03/22 05:08:05;;;;;;;22.85;13.52;;;;;;;;;;4919615;29;20383;-70
2021/03/22 05:10:33;;;;;;;22.00;13.18;;;;;;;;;;4919671;29;20020;-71
2021/03/22 05:13:00;;;;;;;22.20;13.10;;;;;;;;;;4902280;29;20384;-71
2021/03/22 05:15:26;;;;;;;22.33;14.10;;;;;;;;;;4919604;29;20127;-70
2021/03/22 05:17:52;;;;;;;22.65;14.38;;;;;;;;;;4902367;29;20060;-71
2021/03/22 05:20:23;;;;;;;20.08;13.02;;;;;;;;;;4902216;29;20032;-71
2021/03/22 05:22:49;;;;;;;23.87;13.20;;;;;;;;;;4919976;29;20469;-70
2021/03/22 05:25:16;;;;;;;19.83;12.60;;;;;;;;;;4919051;29;20035;-71
2021/03/22 05:27:42;;;;;;;22.55;13.57;;;;;;;;;;4902591;29;20114;-70
2021/03/22 05:30:09;;;;;;;22.08;11.93;;;;;;;;;;4918869;29;20035;-70
2021/03/22 05:32:36;;;;;;;21.45;12.50;;;;;;;;;;4917856;29;20028;-70
2021/03/22 05:35:04;;;;;;;22.80;13.38;;;;;;;;;;4917817;29;20544;-70
2021/03/22 05:37:30;;;;;;;21.65;13.85;;;;;;;;;;4918708;29;20497;-70
2021/03/22 05:39:57;;;;;;;19.65;13.55;;;;;;;;;;4918473;29;20085;-71
2021/03/22 05:42:29;;;;;;;21.23;13.93;;;;;;;;;;4902093;29;20032;-71
2021/03/22 05:44:57;;;;;;;25.27;14.73;;;;;;;;;;4918962;29;20408;-71
2021/03/22 05:47:23;;;;;;;22.80;13.85;;;;;;;;;;4901262;29;20380;-70
2021/03/22 05:50:00;;;;;;;22.55;13.18;;;;;;;;;;4918578;29;20098;-70
2021/03/22 05:52:41;;;;;;;25.15;14.57;;;;;;;;;;4901838;29;20123;-71
2021/03/22 05:55:14;;;;;;;25.60;14.52;;;;;;;;;;4918439;29;20080;-70
2021/03/22 05:57:40;;;;;;;27.08;15.00;;;;;;;;;;4919026;29;20144;-70
2021/03/22 06:00:14;;;;;;;25.35;14.10;;;;;;;;;;4918691;29;20064;-71
2021/03/22 06:02:49;;;;;;;27.40;14.07;;;;;;;;;;4918705;29;20408;-69
2021/03/22 06:05:25;;;;;;;28.80;15.85;;;;;;;;;;4918927;29;20083;-70
2021/03/22 06:07:53;;;;;;;26.42;14.30;;;;;;;;;;4901282;29;20021;-70
2021/03/22 06:10:20;;;;;;;25.90;13.95;;;;;;;;;;4896399;29;20114;-70
2021/03/22 06:13:00;;;;;;;27.02;15.45;;;;;;;;;;4909307;29;20056;-70
2021/03/22 06:15:30;;;;;;;24.60;13.25;;;;;;;;;;4882184;29;20427;-72
2021/03/22 06:17:56;;;;;;;19.35;12.93;;;;;;;;;;4899466;29;20048;-71
2021/03/22 06:20:26;;;;;;;26.35;15.95;;;;;;;;;;4900319;29;20052;-71
2021/03/22 06:22:54;;;;;;;28.25;15.95;;;;;;;;;;4882078;29;20020;-70
2021/03/22 06:25:27;;;;;;;25.63;15.60;;;;;;;;;;4898908;29;20462;-69
2021/03/22 06:27:54;;;;;;;25.70;15.73;;;;;;;;;;4882328;29;20033;-71
2021/03/22 06:30:25;;;;;;;25.52;15.70;;;;;;;;;;4898699;29;20032;-71
2021/03/22 06:32:54;;;;;;;23.42;15.68;;;;;;;;;;4882443;29;20492;-70
2021/03/22 06:35:25;;;;;;;29.25;16.20;;;;;;;;;;4898864;29;20489;-71
2021/03/22 06:37:52;;;;;;;18.93;11.93;;;;;;;;;;4899224;29;20484;-70
2021/03/22 06:40:27;;;;;;;21.63;14.55;;;;;;;;;;4882099;29;20036;-74
2021/03/22 06:43:12;;;;;;;27.95;15.32;;;;;;;;;;4880360;29;20039;-72
2021/03/22 06:45:40;;;;;;;23.83;14.55;;;;;;;;;;4880656;29;20063;-73
2021/03/22 06:48:20;;;;;;;25.67;15.82;;;;;;;;;;4892764;29;20024;-73
2021/03/22 06:50:47;;;;;;;26.90;16.67;;;;;;;;;;4893746;29;20107;-75
2021/03/22 06:53:31;;;;;;;30.77;17.70;;;;;;;;;;4900330;29;20028;-76
2021/03/22 06:56:09;;;;;;;32.53;16.63;;;;;;;;;;4916441;29;20050;-78
2021/03/22 06:58:35;;;;;;;30.25;17.63;;;;;;;;;;4898457;29;20060;-76
2021/03/22 07:01:22;;;;;;;33.67;20.00;;;;;;;;;;4900132;29;20031;-76
2021/03/22 07:03:48;;;;;;;37.63;23.02;;;;;;;;;;4895669;29;20167;-75
2021/03/22 07:06:16;;;;;;;37.20;22.80;;;;;;;;;;4900489;29;20028;-76
2021/03/22 07:08:42;;;;;;;39.65;23.50;;;;;;;;;;4897111;29;20043;-75
2021/03/22 07:11:13;;;;;;;35.15;21.90;;;;;;;;;;4894237;29;20024;-76
2021/03/22 07:13:50;;;;;;;34.88;22.38;;;;;;;;;;4896800;29;20035;-77
2021/03/22 07:16:18;;;;;;;39.22;23.65;;;;;;;;;;4898260;29;20020;-77
2021/03/22 07:19:04;;;;;;;42.10;24.42;;;;;;;;;;4898513;29;20400;-81
2021/03/22 07:21:31;;;;;;;44.88;25.40;;;;;;;;;;4898018;29;20020;-76
2021/03/22 07:24:02;;;;;;;42.75;24.50;;;;;;;;;;4896979;29;20036;-73
2021/03/22 07:26:48;;;;;;;36.05;22.73;;;;;;;;;;4895969;29;20118;-74
2021/03/22 07:29:24;;;;;;;31.95;20.70;;;;;;;;;;4896719;29;20048;-74
2021/03/22 07:31:56;;;;;;;37.30;23.83;;;;;;;;;;4913248;29;20020;-72
2021/03/22 07:34:29;;;;;;;39.92;23.90;;;;;;;;;;4897736;29;20282;-83
2021/03/22 07:36:56;;;;;;;41.67;24.08;;;;;;;;;;4897507;29;20380;-81
2021/03/22 07:39:42;;;;;;;42.53;24.98;;;;;;;;;;4898214;29;20020;-73
2021/03/22 07:42:20;;;;;;;46.67;29.17;;;;;;;;;;4897060;29;20392;-73
2021/03/22 07:45:04;;;;;;;46.53;29.23;;;;;;;;;;4894602;29;20032;-71
2021/03/22 07:47:30;;;;;;;42.30;27.45;;;;;;;;;;4896136;29;20115;-74
2021/03/22 07:50:06;;;;;;;42.95;27.50;;;;;;;;;;4897594;29;20035;-75
2021/03/22 07:52:32;;;;;;;45.42;27.73;;;;;;;;;;4897468;29;20064;-73
2021/03/22 07:55:10;;;;;;;47.88;28.20;;;;;;;;;;4898946;29;20391;-72
2021/03/22 07:57:36;;;;;;;45.85;27.60;;;;;;;;;;4897922;29;20087;-69
2021/03/22 08:00:18;;;;;;;39.90;25.15;;;;;;;;;;4902689;29;20035;-70
2021/03/22 08:03:03;;;;;;;34.55;23.83;;;;;;;;;;4898983;29;20080;-71
2021/03/22 08:05:38;;;;;;;34.45;21.75;;;;;;;;;;4897532;29;20032;-72
2021/03/22 08:08:09;;;;;;;37.45;22.92;;;;;;;;;;4895004;29;20024;-71
2021/03/22 08:10:41;;;;;;;35.00;21.25;;;;;;;;;;4915949;29;20056;-73
2021/03/22 08:13:07;;;;;;;35.55;23.25;;;;;;;;;;4902863;29;20491;-73
2021/03/22 08:15:37;;;;;;;38.15;23.55;;;;;;;;;;4901888;29;20107;-75
2021/03/22 08:18:06;;;;;;;36.75;22.05;;;;;;;;;;4916067;29;20048;-73
2021/03/22 08:20:35;;;;;;;34.08;21.50;;;;;;;;;;4897724;29;20024;-72
2021/03/22 08:23:01;;;;;;;34.45;21.27;;;;;;;;;;4914575;29;20032;-72
2021/03/22 08:25:30;;;;;;;27.92;18.10;;;;;;;;;;4900168;29;20507;-72
2021/03/22 08:28:05;;;;;;;29.60;19.65;;;;;;;;;;4900602;29;20480;-73
2021/03/22 08:30:47;;;;;;;32.47;19.58;;;;;;;;;;4895652;29;20120;-73
2021/03/22 08:33:28;;;;;;;35.30;20.80;;;;;;;;;;4914597;29;20064;-74
2021/03/22 08:35:59;;;;;;;35.58;21.13;;;;;;;;;;4900871;29;20127;-71
2021/03/22 08:38:45;;;;;;;42.05;23.42;;;;;;;;;;4900537;29;20143;-73
2021/03/22 08:41:31;;;;;;;32.72;20.33;;;;;;;;;;4899275;29;20087;-72
2021/03/22 08:44:18;;;;;;;45.97;30.10;;;;;;;;;;4917007;29;20032;-72
2021/03/22 08:47:02;;;;;;;31.55;19.85;;;;;;;;;;4898379;29;20028;-75
2021/03/22 08:49:37;;;;;;;30.58;19.55;;;;;;;;;;4916685;29;20028;-72
2021/03/22 08:52:04;;;;;;;31.15;20.35;;;;;;;;;;4891500;29;20039;-72
2021/03/22 08:54:32;;;;;;;31.70;22.15;;;;;;;;;;4891277;29;20083;-73
2021/03/22 08:57:12;;;;;;;36.85;22.83;;;;;;;;;;4897872;29;20024;-73
2021/03/22 08:59:39;;;;;;;37.05;24.63;;;;;;;;;;4898065;29;20145;-72
2021/03/22 09:02:25;;;;;;;36.33;24.42;;;;;;;;;;4902099;29;20031;-74
2021/03/22 09:04:51;;;;;;;38.42;25.88;;;;;;;;;;4918545;29;20032;-76
2021/03/22 09:07:18;;;;;;;41.33;24.60;;;;;;;;;;4901635;29;20028;-73
2021/03/22 09:09:45;;;;;;;44.97;28.98;;;;;;;;;;4896580;29;20028;-78
2021/03/22 09:12:32;;;;;;;40.28;27.30;;;;;;;;;;4891166;29;20036;-76
2021/03/22 09:14:59;;;;;;;45.45;28.45;;;;;;;;;;4896328;29;20055;-79
2021/03/22 09:17:43;;;;;;;43.55;28.52;;;;;;;;;;4897424;29;20119;-77
2021/03/22 09:20:18;;;;;;;41.60;26.58;;;;;;;;;;4914372;29;20075;-76
2021/03/22 09:22:48;;;;;;;36.47;24.45;;;;;;;;;;4897921;29;20035;-76
2021/03/22 09:25:34;;;;;;;44.47;28.17;;;;;;;;;;4897968;29;20546;-75
2021/03/22 09:28:21;;;;;;;41.00;25.58;;;;;;;;;;4895356;29;20115;-76
2021/03/22 09:31:02;;;;;;;34.92;22.40;;;;;;;;;;4898101;29;20024;-75
2021/03/22 09:33:47;;;;;;;32.88;21.17;;;;;;;;;;4897377;29;20402;-77
2021/03/22 09:36:25;;;;;;;31.90;20.55;;;;;;;;;;4899355;29;20782;-76
2021/03/22 09:38:51;;;;;;;29.88;18.05;;;;;;;;;;4898411;29;20479;-75
2021/03/22 09:41:17;;;;;;;26.92;17.33;;;;;;;;;;4917111;29;20016;-74
2021/03/22 09:43:46;;;;;;;29.02;18.88;;;;;;;;;;4900833;29;20070;-76
2021/03/22 09:46:17;;;;;;;37.47;23.92;;;;;;;;;;4900459;29;20035;-73
2021/03/22 09:48:44;;;;;;;36.80;24.73;;;;;;;;;;4899812;29;20034;-76
2021/03/22 09:51:10;;;;;;;38.78;24.23;;;;;;;;;;4899628;29;20020;-76
2021/03/22 09:53:55;;;;;;;36.97;24.17;;;;;;;;;;4899452;29;20131;-74
2021/03/22 09:56:30;;;;;;;37.47;23.10;;;;;;;;;;4899958;29;20036;-74
2021/03/22 09:59:15;;;;;;;39.42;24.85;;;;;;;;;;4889869;29;20020;-75
2021/03/22 10:01:42;;;;;;;35.28;23.75;;;;;;;;;;4889025;29;20483;-77
2021/03/22 10:04:17;;;;;;;36.97;22.90;;;;;;;;;;4891209;29;20084;-74
2021/03/22 10:06:56;;;;;;;34.90;24.05;;;;;;;;;;4892508;29;20032;-76
2021/03/22 10:09:45;;;;;;;33.22;22.42;;;;;;;;;;4891119;29;20064;-73
2021/03/22 10:12:41;;;;;;;31.35;22.23;;;;;;;;;;4887749;29;20078;-76
2021/03/22 10:15:10;;;;;;;33.47;22.40;;;;;;;;;;4846498;29;20062;-76
2021/03/22 10:17:40;;;;;;;30.73;20.92;;;;;;;;;;4843648;29;20038;-73
2021/03/22 10:20:19;;;;;;;34.13;22.60;;;;;;;;;;4841146;29;20113;-75
2021/03/22 10:22:46;;;;;;;41.50;23.17;;;;;;;;;;4824563;29;20545;-75
2021/03/22 10:25:20;;;;;;;40.22;25.52;;;;;;;;;;4840351;29;20078;-75
2021/03/22 10:27:47;;;;;;;37.03;25.00;;;;;;;;;;4837553;29;20042;-76
2021/03/22 10:30:14;;;;;;;39.95;26.23;;;;;;;;;;4825169;29;20034;-74
2021/03/22 10:32:43;;;;;;;43.13;27.63;;;;;;;;;;4824592;29;20502;-74
2021/03/22 10:35:10;;;;;;;42.13;25.88;;;;;;;;;;4823808;29;20038;-73
2021/03/22 10:37:41;;;;;;;39.72;26.27;;;;;;;;;;4824065;29;20066;-76
2021/03/22 10:40:21;;;;;;;36.85;25.20;;;;;;;;;;4824071;29;20508;-75
2021/03/22 10:42:48;;;;;;;40.50;26.95;;;;;;;;;;4823742;29;20026;-76
2021/03/22 10:45:23;;;;;;;42.28;27.13;;;;;;;;;;4827629;29;20120;-74
2021/03/22 10:47:50;;;;;;;51.42;29.48;;;;;;;;;;4844073;29;20049;-74
2021/03/22 10:50:35;;;;;;;51.58;31.83;;;;;;;;;;4830032;29;20033;-71
2021/03/22 10:53:03;;;;;;;43.25;28.95;;;;;;;;;;4895726;29;20024;-74
2021/03/22 10:55:30;;;;;;;42.13;27.13;;;;;;;;;;4897311;29;20369;-73
2021/03/22 10:57:57;;;;;;;51.97;31.85;;;;;;;;;;4896846;29;20042;-72
2021/03/22 11:00:30;;;;;;;45.58;27.90;;;;;;;;;;4900098;29;20020;-72
2021/03/22 11:02:57;;;;;;;37.70;25.50;;;;;;;;;;4895839;29;20066;-72
2021/03/22 11:05:28;;;;;;;39.22;26.42;;;;;;;;;;4916701;29;20032;-72
2021/03/22 11:08:01;;;;;;;45.30;26.95;;;;;;;;;;4916709;29;20028;-70
2021/03/22 11:10:27;;;;;;;42.75;27.05;;;;;;;;;;4899313;29;20020;-72
2021/03/22 11:12:54;;;;;;;42.83;27.95;;;;;;;;;;4899584;29;20020;-71
2021/03/22 11:15:32;;;;;;;47.58;29.40;;;;;;;;;;4899960;29;20476;-72
2021/03/22 11:17:58;;;;;;;39.00;26.25;;;;;;;;;;4899235;29;20492;-73
2021/03/22 11:20:28;;;;;;;44.90;27.83;;;;;;;;;;4915887;29;20024;-72
2021/03/22 11:22:54;;;;;;;45.95;28.98;;;;;;;;;;4916267;29;20031;-71
2021/03/22 11:25:30;;;;;;;49.95;31.25;;;;;;;;;;4899050;29;20127;-72
2021/03/22 11:28:01;;;;;;;52.42;30.23;;;;;;;;;;4899097;29;20036;-72
2021/03/22 11:30:35;;;;;;;48.38;30.98;;;;;;;;;;4899703;29;20028;-71
2021/03/22 11:33:07;;;;;;;49.42;30.48;;;;;;;;;;4897754;29;20036;-73
2021/03/22 11:35:33;;;;;;;;;;;;;;;;;;4899899;29;20036;-73
2021/03/22 11:38:02;;;;;;;42.00;26.33;;;;;;;;;;4899857;29;19914;-75
2021/03/22 11:40:29;;;;;;;41.35;26.63;;;;;;;;;;4899298;29;20064;-75
2021/03/22 11:42:55;;;;;;;39.38;25.85;;;;;;;;;;4897355;29;20039;-74
2021/03/22 11:45:32;;;;;;;37.10;23.73;;;;;;;;;;4890000;29;20036;-73
2021/03/22 11:47:59;;;;;;;48.80;30.30;;;;;;;;;;4903229;29;20024;-72
2021/03/22 11:50:37;;;;;;;38.05;25.10;;;;;;;;;;4902604;29;20028;-74
2021/03/22 11:53:24;;;;;;;37.47;24.15;;;;;;;;;;4902913;29;20024;-73
2021/03/22 11:55:52;;;;;;;42.08;27.30;;;;;;;;;;4902216;29;20038;-74
2021/03/22 11:58:30;;;;;;;30.98;21.20;;;;;;;;;;4902395;29;20083;-74
2021/03/22 12:01:11;;;;;;;32.97;22.02;;;;;;;;;;4899460;29;20047;-74
2021/03/22 12:03:38;;;;;;;40.22;25.25;;;;;;;;;;4917426;29;20029;-73
2021/03/22 12:06:10;;;;;;;38.58;24.13;;;;;;;;;;4899061;29;20028;-72
2021/03/22 12:08:47;;;;;;;36.85;23.90;;;;;;;;;;4900581;29;20024;-73
2021/03/22 12:11:19;;;;;;;36.95;23.55;;;;;;;;;;4896194;29;20020;-71
2021/03/22 12:13:49;;;;;;;36.90;24.13;;;;;;;;;;4902116;29;20055;-73
2021/03/22 12:16:19;;;;;;;32.92;21.75;;;;;;;;;;4902097;29;20028;-73
2021/03/22 12:18:45;;;;;;;35.17;23.25;;;;;;;;;;4899755;29;20059;-70
2021/03/22 12:21:13;;;;;;;34.40;22.02;;;;;;;;;;4902572;29;20024;-71
2021/03/22 12:23:39;;;;;;;35.72;23.30;;;;;;;;;;4918764;29;20484;-72
2021/03/22 12:26:06;;;;;;;36.80;24.10;;;;;;;;;;4902255;29;20032;-73
2021/03/22 12:28:32;;;;;;;38.42;24.35;;;;;;;;;;4902287;29;20119;-71
2021/03/22 12:30:59;;;;;;;36.88;24.17;;;;;;;;;;4900312;29;20384;-74
2021/03/22 12:33:28;;;;;;;40.15;25.15;;;;;;;;;;4916586;29;20047;-71
2021/03/22 12:35:54;;;;;;;38.00;24.65;;;;;;;;;;4918632;29;20020;-78
2021/03/22 12:38:21;;;;;;;33.15;23.00;;;;;;;;;;4901442;29;20396;-81
2021/03/22 12:40:47;;;;;;;34.50;23.00;;;;;;;;;;4899955;29;20024;-76
2021/03/22 12:43:24;;;;;;;39.17;25.20;;;;;;;;;;4901283;29;20087;-82
2021/03/22 12:45:51;;;;;;;34.97;23.95;;;;;;;;;;4917997;29;20055;-83
2021/03/22 12:48:17;;;;;;;37.45;24.52;;;;;;;;;;4900205;29;20059;-78
2021/03/22 12:50:44;;;;;;;37.97;25.73;;;;;;;;;;4913964;29;20103;-81
2021/03/22 12:53:12;;;;;;;38.83;25.55;;;;;;;;;;4901614;29;20021;-82
2021/03/22 12:55:42;;;;;;;36.65;23.17;;;;;;;;;;4898291;29;20040;-82
2021/03/22 12:58:15;;;;;;;35.85;22.90;;;;;;;;;;4898197;29;20096;-81
2021/03/22 13:00:48;;;;;;;42.47;26.13;;;;;;;;;;4913458;29;20025;-83
2021/03/22 13:03:16;;;;;;;40.80;24.00;;;;;;;;;;4916603;29;20088;-73
2021/03/22 13:05:42;;;;;;;66.20;37.97;;;;;;;;;;4898300;29;20063;-74
2021/03/22 13:08:08;;;;;;;71.65;40.95;;;;;;;;;;4899616;29;20095;-74
2021/03/22 13:10:35;;;;;;;46.95;29.80;;;;;;;;;;4899826;29;20028;-75
2021/03/22 13:13:05;;;;;;;46.00;28.65;;;;;;;;;;4916163;29;20532;-76
2021/03/22 13:15:33;;;;;;;43.65;27.77;;;;;;;;;;4895206;29;20036;-75
2021/03/22 13:17:59;;;;;;;38.75;24.88;;;;;;;;;;4889174;29;20136;-75
2021/03/22 13:20:30;;;;;;;34.80;22.92;;;;;;;;;;4886244;29;20111;-75
2021/03/22 13:22:56;;;;;;;42.67;26.95;;;;;;;;;;4918011;29;20111;-77
2021/03/22 13:25:26;;;;;;;39.13;25.48;;;;;;;;;;4917957;29;20035;-72
2021/03/22 13:27:52;;;;;;;40.95;26.38;;;;;;;;;;4900555;29;20020;-73
2021/03/22 13:30:23;;;;;;;41.53;26.73;;;;;;;;;;4901675;29;20020;-73
2021/03/22 13:32:49;;;;;;;44.92;27.08;;;;;;;;;;4899468;29;20035;-71
2021/03/22 13:35:17;;;;;;;39.35;24.83;;;;;;;;;;4901326;29;20392;-72
2021/03/22 13:37:44;;;;;;;45.85;28.23;;;;;;;;;;4901973;29;20472;-69
2021/03/22 13:40:10;;;;;;;43.70;27.02;;;;;;;;;;4918507;29;20107;-68
2021/03/22 13:42:37;;;;;;;41.00;25.20;;;;;;;;;;4901330;29;20027;-70
2021/03/22 13:45:03;;;;;;;39.85;24.25;;;;;;;;;;4901891;29;20032;-73
2021/03/22 13:47:29;;;;;;;41.10;25.27;;;;;;;;;;4916458;29;20104;-71
2021/03/22 13:49:55;;;;;;;41.72;25.02;;;;;;;;;;4916566;29;20029;-72
2021/03/22 13:52:24;;;;;;;40.15;25.52;;;;;;;;;;4917283;29;20035;-72
2021/03/22 13:54:50;;;;;;;55.15;32.30;;;;;;;;;;4916808;29;20028;-74
2021/03/22 13:57:17;;;;;;;45.55;27.33;;;;;;;;;;4900169;29;20115;-74
2021/03/22 13:59:43;;;;;;;44.60;27.20;;;;;;;;;;4899896;29;20031;-72
2021/03/22 14:02:13;;;;;;;39.15;25.02;;;;;;;;;;4900045;29;20024;-72
2021/03/22 14:04:39;;;;;;;47.42;28.30;;;;;;;;;;4916919;29;20388;-73
2021/03/22 14:07:06;;;;;;;43.67;28.40;;;;;;;;;;4899122;29;20032;-70
2021/03/22 14:09:32;;;;;;;44.67;27.60;;;;;;;;;;4916666;29;20024;-70
2021/03/22 14:11:59;;;;;;;46.15;27.58;;;;;;;;;;4899507;29;20476;-70
2021/03/22 14:14:25;;;;;;;46.47;27.55;;;;;;;;;;4914948;29;20476;-68
2021/03/22 14:16:52;;;;;;;44.42;27.20;;;;;;;;;;4916221;29;20026;-69
2021/03/22 14:19:18;;;;;;;47.35;28.95;;;;;;;;;;4916686;29;20127;-70
2021/03/22 14:21:44;;;;;;;44.08;27.60;;;;;;;;;;4899052;29;20032;-70
2021/03/22 14:24:10;;;;;;;48.97;30.00;;;;;;;;;;4916222;29;20099;-70
2021/03/22 14:26:36;;;;;;;47.60;29.95;;;;;;;;;;4898832;29;20040;-72
2021/03/22 14:29:03;;;;;;;45.53;27.80;;;;;;;;;;4914934;29;20024;-70
2021/03/22 14:31:33;;;;;;;46.22;27.30;;;;;;;;;;4914950;29;20027;-73
2021/03/22 14:34:00;;;;;;;48.45;29.73;;;;;;;;;;4915152;29;20035;-70
2021/03/22 14:36:28;;;;;;;47.45;29.02;;;;;;;;;;4898956;29;20047;-71